• Join FlightAware (Why Join?)
  • Login
  • US Flag 
01:14AM EST


 

Airport Tracker/Info


-or-


 

Live Flight TrackerFlight Track Log ✈ SWA2122 ✈ 13-Apr-2013 ✈ KBWI - KBNA

Flight Track Log - Related Links

Times and Time Zones

All times are in EDT time to prevent confusion due to time zone crossing. See the SWA2122 flight status page for this flight to view local times or setup timezone preferences in your user account.

Time Position Orientation Groundspeed Altitude Reporting Facility
EDT Latitude Longitude Course Direction KTS MPH feet Rate Location/Type
08:50AM 39.1667 -76.7333 211° Southwest 187 215 1,900  Level Potomac TRACON
08:53AM 39.1894 -76.9306 279° West 252 290 9,700 3,060 Climbing Washington Center
08:54AM 39.1989 -77.0139 278° West 252 290 12,500 1,860 Climbing Washington Center
08:55AM 39.2081 -77.1239 276° West 276 318 13,500 1,800 Climbing Washington Center
08:56AM 39.1106 -77.2233 211° Southwest  Level FlightAware Approximate
08:56AM 39.1506 -77.2161 231° Southwest 301 346 16,200  Level Washington Center
08:57AM 39.1094 -77.3222 243° Southwest 311 358 17,800 2,400 Climbing Washington Center
08:58AM 39.0764 -77.4392 250° West 339 390 21,000 2,940 Climbing Washington Center
08:59AM 39.0411 -77.5586 249° West 339 390 23,700 1,920 Climbing Washington Center
09:00AM 39.0100 -77.6753 251° West 339 390 24,900 1,380 Climbing Washington Center
09:01AM 38.9747 -77.7917 249° West 348 400 26,500 1,740 Climbing Washington Center
09:02AM 38.9389 -77.9133 249° West 356 410 28,400 1,920 Climbing Washington Center
09:03AM 38.9056 -78.0272 249° West 356 410 30,400 1,740 Climbing Washington Center
09:04AM 38.8739 -78.1381 250° West 349 402 31,900 1,440 Climbing Washington Center
09:05AM 38.8508 -78.2492 255° West 343 395 33,300 1,260 Climbing Washington Center
09:06AM 38.8503 -78.3664 270° West 338 389 34,500 900 Climbing Washington Center
09:07AM 38.8494 -78.4864 270° West 333 383 35,200 720 Climbing Washington Center
09:08AM 38.8486 -78.6064 270° West 333 383 36,000 360 Climbing Washington Center
09:09AM 38.8456 -78.7261 268° West 333 383 36,000  Level Washington Center
09:10AM 38.8467 -78.8436 271° West 338 389 36,000  Level Washington Center
09:11AM 38.8414 -78.9578 267° West 332 382 36,000  Level Washington Center
09:12AM 38.8400 -79.0725 269° West 326 375 36,000  Level Washington Center
09:13AM 38.8389 -79.1869 269° West 326 375 36,000  Level Washington Center
09:14AM 38.8186 -79.3006 257° West 326 375 36,000  Level Washington Center
09:15AM 38.8006 -79.4117 258° West 331 381 36,000  Level Washington Center
09:16AM 38.7833 -79.4986 256° West 331 381 36,000  Level Washington Center
09:17AM 38.7661 -79.6389 261° West 337 388 36,000  Level Washington Center
09:18AM 38.7458 -79.7414 256° West 337 388 36,000  Level Washington Center
09:19AM 38.7250 -79.8575 257° West 331 381 36,000  Level Washington Center
09:20AM 38.7019 -79.9783 256° West 338 389 36,000 -600 Level Washington Center
09:21AM 38.6639 -80.1600 255° West 338 389 34,600 -780 Descending Indianapolis Center
09:22AM 38.6417 -80.2789 257° West 342 394 34,000 -300 Descending Indianapolis Center
09:23AM 38.6192 -80.3986 257° West 343 395 34,000  Level Indianapolis Center
09:24AM 38.5969 -80.5172 257° West 342 394 34,000  Level Indianapolis Center
09:25AM 38.5731 -80.6369 256° West 345 397 34,000  Level Indianapolis Center
09:26AM 38.5503 -80.7564 256° West 346 398 34,000  Level Indianapolis Center
09:27AM 38.5278 -80.8753 256° West 344 396 34,000  Level Indianapolis Center
09:28AM 38.5044 -80.9936 256° West 342 394 34,000  Level Indianapolis Center
09:29AM 38.4814 -81.1125 256° West 343 395 34,000  Level Indianapolis Center
09:30AM 38.4583 -81.2303 256° West 341 392 34,000  Level Indianapolis Center
09:31AM 38.4342 -81.3486 255° West 341 392 34,000  Level Indianapolis Center
09:33AM 38.4061 -81.4917 256° West 342 394 34,000  Level Indianapolis Center
09:34AM 38.3953 -81.6150 264° West 347 399 34,000  Level Indianapolis Center
09:35AM 38.3844 -81.7375 264° West 345 397 34,000  Level Indianapolis Center
09:36AM 38.3736 -81.8608 264° West 347 399 34,000  Level Indianapolis Center
09:37AM 38.3558 -81.9797 259° West 342 394 34,000  Level Indianapolis Center
09:38AM 38.3192 -82.0914 247° West 341 392 34,000  Level Indianapolis Center
09:39AM 38.2856 -82.2050 249° West 342 394 34,000  Level Indianapolis Center
09:40AM 38.2497 -82.3175 248° West 342 394 34,000  Level Indianapolis Center
09:41AM 38.2147 -82.4297 248° West 341 392 34,000  Level Indianapolis Center
09:42AM 38.1789 -82.5444 248° West 340 391 34,000  Level Indianapolis Center
09:43AM 38.1367 -82.6750 248° West 343 395 34,000  Level Indianapolis Center
09:44AM 38.1017 -82.7864 248° West 341 392 34,000  Level Indianapolis Center
09:45AM 38.0656 -82.8981 248° West 342 394 34,000  Level Indianapolis Center
09:46AM 38.0300 -83.0111 248° West 345 397 34,000  Level Indianapolis Center
09:47AM 37.9881 -83.1200 244° Southwest 345 397 34,000  Level Indianapolis Center
09:48AM 37.9350 -83.2225 237° Southwest 346 398 34,000  Level Indianapolis Center
09:49AM 37.8728 -83.3403 236° Southwest 345 397 34,000  Level Indianapolis Center
09:50AM 37.8197 -83.4414 236° Southwest 345 397 34,000  Level Indianapolis Center
09:51AM 37.7664 -83.5414 236° Southwest 345 397 34,000  Level Indianapolis Center
09:52AM 37.7122 -83.6422 236° Southwest 345 397 34,000  Level Indianapolis Center
09:53AM 37.6594 -83.7419 236° Southwest 343 395 34,000  Level Indianapolis Center
09:54AM 37.6056 -83.8417 236° Southwest 342 394 34,000  Level Indianapolis Center
09:55AM 37.5519 -83.9425 236° Southwest 344 396 34,000  Level Indianapolis Center
09:56AM 37.4886 -84.0600 236° Southwest 346 398 34,000 -60 Level Indianapolis Center
09:57AM 37.4350 -84.1606 236° Southwest 346 398 33,900 -480 Descending Indianapolis Center
09:58AM 37.3786 -84.2631 235° Southwest 356 410 33,100 -480 Descending Indianapolis Center
09:59AM 37.3214 -84.3681 236° Southwest 362 417 33,000 -60 Descending Indianapolis Center
10:00AM 37.2658 -84.4706 236° Southwest 358 412 33,000  Level Indianapolis Center
10:01AM 37.2111 -84.5722 236° Southwest 352 405 33,000  Level Indianapolis Center
10:02AM 37.1464 -84.6900 235° Southwest 351 404 33,000  Level Indianapolis Center
10:03AM 37.0908 -84.7911 235° Southwest 353 406 33,000  Level Indianapolis Center
10:04AM 37.0336 -84.8944 235° Southwest 354 407 33,000 -300 Level Indianapolis Center
10:05AM 36.9792 -84.9931 235° Southwest 348 400 32,400 -1,620 Descending Indianapolis Center
10:06AM 36.9206 -85.0975 235° Southwest 363 418 29,700 -2,700 Descending Indianapolis Center
10:07AM 36.8631 -85.2019 235° Southwest 366 421 26,900 -2,580 Descending Indianapolis Center
10:08AM 36.8069 -85.3003 235° Southwest 352 405 24,500 -2,400 Descending Indianapolis Center
10:09AM 36.7558 -85.3936 236° Southwest 332 382 22,100 -1,620 Descending Indianapolis Center
10:10AM 36.7244 -85.4514 236° Southwest 338 389 22,000 -120 Descending Memphis Center
10:11AM 36.6806 -85.5550 242° Southwest 318 366 22,000  Level Memphis Center
10:12AM 36.6358 -85.6406 237° Southwest 318 366 22,000 -300 Level Memphis Center
10:13AM 36.5933 -85.7308 240° Southwest 323 372 21,400 -1,020 Descending Memphis Center
10:14AM 36.5492 -85.8289 241° Southwest 317 365 20,000 -1,800 Descending Memphis Center
10:15AM 36.5064 -85.9164 239° Southwest 300 345 17,900 -1,800 Descending Memphis Center
10:16AM 36.4714 -85.9906 240° Southwest 293 337 16,500 -2,040 Descending Memphis Center
10:17AM 36.4286 -86.0781 239° Southwest 293 337 13,900 -2,280 Descending Memphis Center
10:18AM 36.3858 -86.1653 239° Southwest 298 343 12,000 -1,860 Descending Memphis Center
10:19AM 36.3469 -86.2500 240° Southwest 293 337 10,200 -1,860 Descending Memphis Center
10:20AM 36.3081 -86.3317 239° Southwest 293 337 8,300 -1,800 Descending Memphis Center
10:21AM 36.2667 -86.4136 238° Southwest 282 325 6,700 -1,200 Descending Memphis Center
10:22AM 36.2278 -86.4953 239° Southwest 277 319 6,000 -360 Descending Memphis Center
10:23AM 36.1644 -86.5392 209° Southwest 255 293 6,000 -420 Level Memphis Center
10:24AM 36.0964 -86.5656 197° South 255 293 5,200 -960 Descending Memphis Center
10:25AM 36.0367 -86.5914 199° South 244 281 4,100 -900 Descending Memphis Center
10:26AM 35.9856 -86.6194 204° Southwest 217 250 3,500 -420 Descending Memphis Center
10:27AM 35.9933 -86.6703 281° West 138 159 3,300 -600 Descending Memphis Center
10:28AM 36.0192 -86.7000 317° Northwest 113 130 2,400 -780 Descending Memphis Center
10:30AM 36.1000 -86.6667 18° North 140 161 900 -720 Descending Nashville TRACON
10:32AM 36.1167 -86.6667 North  Level FlightAware Approximate
10:39AM 36.1245 -86.6782 North  Level Estimated
10:40AM 36.1245 -86.6782 North  Level Estimated
10:41AM 36.1245 -86.6782 North  Level Estimated
10:42AM 36.1245 -86.6782 North  Level Estimated
10:43AM 36.1245 -86.6782 North  Level Estimated
10:44AM 36.1245 -86.6782 North  Level Estimated
10:45AM 36.1245 -86.6782 North  Level Estimated
10:46AM 36.1245 -86.6782 North  Level Estimated